sensor_id;sensor_type;location;lat;lon;timestamp;temperature;humidity
15133;DHT22;7667;51.232;17.110;2023-02-14T00:01:22;4.40;99.90
15133;DHT22;7667;51.232;17.110;2023-02-14T00:03:49;4.30;99.90
15133;DHT22;7667;51.232;17.110;2023-02-14T00:06:17;4.30;99.90
15133;DHT22;7667;51.232;17.110;2023-02-14T00:08:44;4.30;99.90
15133;DHT22;7667;51.232;17.110;2023-02-14T00:11:12;4.30;99.90
15133;DHT22;7667;51.232;17.110;2023-02-14T00:13:40;4.30;99.90
15133;DHT22;7667;51.232;17.110;2023-02-14T00:16:27;4.30;99.90
15133;DHT22;7667;51.232;17.110;2023-02-14T00:18:55;4.30;99.90
15133;DHT22;7667;51.232;17.110;2023-02-14T00:21:34;4.30;99.90
15133;DHT22;7667;51.232;17.110;2023-02-14T00:24:04;4.30;99.90
15133;DHT22;7667;51.232;17.110;2023-02-14T00:26:33;4.30;99.90
15133;DHT22;7667;51.232;17.110;2023-02-14T00:29:01;4.30;99.90
15133;DHT22;7667;51.232;17.110;2023-02-14T00:31:28;4.30;99.90
15133;DHT22;7667;51.232;17.110;2023-02-14T00:33:56;4.30;99.90
15133;DHT22;7667;51.232;17.110;2023-02-14T00:36:24;4.30;99.90
15133;DHT22;7667;51.232;17.110;2023-02-14T00:38:51;4.40;99.90
15133;DHT22;7667;51.232;17.110;2023-02-14T00:41:19;4.40;99.90
15133;DHT22;7667;51.232;17.110;2023-02-14T00:43:48;4.30;99.90
15133;DHT22;7667;51.232;17.110;2023-02-14T00:46:18;4.40;99.90
15133;DHT22;7667;51.232;17.110;2023-02-14T00:48:46;4.30;99.90
15133;DHT22;7667;51.232;17.110;2023-02-14T00:51:15;4.30;99.90
15133;DHT22;7667;51.232;17.110;2023-02-14T00:53:45;4.30;99.90
15133;DHT22;7667;51.232;17.110;2023-02-14T00:56:14;4.40;99.90
15133;DHT22;7667;51.232;17.110;2023-02-14T00:58:42;4.30;99.90
15133;DHT22;7667;51.232;17.110;2023-02-14T01:01:11;4.20;99.90
15133;DHT22;7667;51.232;17.110;2023-02-14T01:03:40;4.20;99.90
15133;DHT22;7667;51.232;17.110;2023-02-14T01:06:07;4.20;99.90
15133;DHT22;7667;51.232;17.110;2023-02-14T01:08:35;4.20;99.90
15133;DHT22;7667;51.232;17.110;2023-02-14T01:11:15;4.20;99.90
15133;DHT22;7667;51.232;17.110;2023-02-14T01:13:44;4.20;99.90
15133;DHT22;7667;51.232;17.110;2023-02-14T01:16:15;4.20;99.90
15133;DHT22;7667;51.232;17.110;2023-02-14T01:18:44;4.30;99.90
15133;DHT22;7667;51.232;17.110;2023-02-14T01:21:38;4.30;99.90
15133;DHT22;7667;51.232;17.110;2023-02-14T01:24:06;4.30;99.90
15133;DHT22;7667;51.232;17.110;2023-02-14T01:26:35;4.20;99.90
15133;DHT22;7667;51.232;17.110;2023-02-14T01:29:03;4.20;99.90
15133;DHT22;7667;51.232;17.110;2023-02-14T01:31:32;4.20;99.90
15133;DHT22;7667;51.232;17.110;2023-02-14T01:34:02;4.10;99.90
15133;DHT22;7667;51.232;17.110;2023-02-14T01:36:32;4.20;99.90
15133;DHT22;7667;51.232;17.110;2023-02-14T01:39:07;4.30;99.90
15133;DHT22;7667;51.232;17.110;2023-02-14T01:41:40;4.20;99.90
15133;DHT22;7667;51.232;17.110;2023-02-14T01:46:44;4.10;99.90
15133;DHT22;7667;51.232;17.110;2023-02-14T01:49:24;4.10;99.90
15133;DHT22;7667;51.232;17.110;2023-02-14T01:52:07;4.10;99.90
15133;DHT22;7667;51.232;17.110;2023-02-14T01:54:42;4.20;99.90
15133;DHT22;7667;51.232;17.110;2023-02-14T01:57:20;4.20;99.90
15133;DHT22;7667;51.232;17.110;2023-02-14T01:59:52;4.20;99.90
15133;DHT22;7667;51.232;17.110;2023-02-14T02:02:22;4.20;99.90
15133;DHT22;7667;51.232;17.110;2023-02-14T02:04:52;4.20;99.90
15133;DHT22;7667;51.232;17.110;2023-02-14T02:07:23;4.20;99.90
15133;DHT22;7667;51.232;17.110;2023-02-14T02:10:00;4.10;99.90
15133;DHT22;7667;51.232;17.110;2023-02-14T02:12:29;4.20;99.90
15133;DHT22;7667;51.232;17.110;2023-02-14T02:14:58;4.20;99.90
15133;DHT22;7667;51.232;17.110;2023-02-14T02:17:47;4.10;99.90
15133;DHT22;7667;51.232;17.110;2023-02-14T02:32:27;4.00;99.90
15133;DHT22;7667;51.232;17.110;2023-02-14T02:35:40;4.00;99.90
15133;DHT22;7667;51.232;17.110;2023-02-14T02:38:40;4.00;99.90
15133;DHT22;7667;51.232;17.110;2023-02-14T02:41:36;4.00;99.90
15133;DHT22;7667;51.232;17.110;2023-02-14T02:44:37;4.00;99.90
15133;DHT22;7667;51.232;17.110;2023-02-14T02:50:04;3.90;99.90
15133;DHT22;7667;51.232;17.110;2023-02-14T02:53:15;4.00;99.90
15133;DHT22;7667;51.232;17.110;2023-02-14T02:56:02;3.90;99.90
15133;DHT22;7667;51.232;17.110;2023-02-14T03:02:04;3.90;99.90
15133;DHT22;7667;51.232;17.110;2023-02-14T03:04:53;3.90;99.90
15133;DHT22;7667;51.232;17.110;2023-02-14T03:07:35;3.80;99.90
15133;DHT22;7667;51.232;17.110;2023-02-14T03:10:10;3.80;99.90
15133;DHT22;7667;51.232;17.110;2023-02-14T03:13:24;3.80;99.90
15133;DHT22;7667;51.232;17.110;2023-02-14T03:22:04;3.80;99.90
15133;DHT22;7667;51.232;17.110;2023-02-14T03:24:51;3.80;99.90
15133;DHT22;7667;51.232;17.110;2023-02-14T03:27:36;3.80;99.90
15133;DHT22;7667;51.232;17.110;2023-02-14T03:30:36;3.80;99.90
15133;DHT22;7667;51.232;17.110;2023-02-14T03:33:54;3.80;99.90
15133;DHT22;7667;51.232;17.110;2023-02-14T03:36:48;3.80;99.90
15133;DHT22;7667;51.232;17.110;2023-02-14T03:39:20;3.90;99.90
15133;DHT22;7667;51.232;17.110;2023-02-14T03:42:36;3.90;99.90
15133;DHT22;7667;51.232;17.110;2023-02-14T03:45:06;3.80;99.90
15133;DHT22;7667;51.232;17.110;2023-02-14T03:47:36;3.80;99.90
15133;DHT22;7667;51.232;17.110;2023-02-14T03:50:15;3.90;99.90
15133;DHT22;7667;51.232;17.110;2023-02-14T03:52:45;3.90;99.90
15133;DHT22;7667;51.232;17.110;2023-02-14T03:55:21;3.90;99.90
15133;DHT22;7667;51.232;17.110;2023-02-14T04:00:41;3.90;99.90
15133;DHT22;7667;51.232;17.110;2023-02-14T04:03:11;4.00;99.90
15133;DHT22;7667;51.232;17.110;2023-02-14T04:05:41;4.00;99.90
15133;DHT22;7667;51.232;17.110;2023-02-14T04:08:20;4.00;99.90
15133;DHT22;7667;51.232;17.110;2023-02-14T04:10:53;3.90;99.90
15133;DHT22;7667;51.232;17.110;2023-02-14T04:13:23;3.90;99.90
15133;DHT22;7667;51.232;17.110;2023-02-14T04:15:51;3.90;99.90
15133;DHT22;7667;51.232;17.110;2023-02-14T04:18:18;3.80;99.90
15133;DHT22;7667;51.232;17.110;2023-02-14T04:21:05;3.80;99.90
15133;DHT22;7667;51.232;17.110;2023-02-14T04:23:32;3.80;99.90
15133;DHT22;7667;51.232;17.110;2023-02-14T04:26:00;3.80;99.90
15133;DHT22;7667;51.232;17.110;2023-02-14T04:28:30;3.80;99.90
15133;DHT22;7667;51.232;17.110;2023-02-14T04:31:03;3.80;99.90
15133;DHT22;7667;51.232;17.110;2023-02-14T04:33:33;3.80;99.90
15133;DHT22;7667;51.232;17.110;2023-02-14T04:36:00;3.80;99.90
15133;DHT22;7667;51.232;17.110;2023-02-14T04:38:28;3.80;99.90
15133;DHT22;7667;51.232;17.110;2023-02-14T04:40:55;3.70;99.90
15133;DHT22;7667;51.232;17.110;2023-02-14T04:43:23;3.70;99.90
15133;DHT22;7667;51.232;17.110;2023-02-14T04:45:50;3.60;99.90
15133;DHT22;7667;51.232;17.110;2023-02-14T04:48:18;3.80;99.90
15133;DHT22;7667;51.232;17.110;2023-02-14T04:50:50;3.80;99.90
15133;DHT22;7667;51.232;17.110;2023-02-14T04:53:20;3.80;99.90
15133;DHT22;7667;51.232;17.110;2023-02-14T04:55:48;3.80;99.90
15133;DHT22;7667;51.232;17.110;2023-02-14T04:58:17;3.70;99.90
15133;DHT22;7667;51.232;17.110;2023-02-14T05:00:44;3.80;99.90
15133;DHT22;7667;51.232;17.110;2023-02-14T05:03:12;3.70;99.90
15133;DHT22;7667;51.232;17.110;2023-02-14T05:05:39;3.70;99.90
15133;DHT22;7667;51.232;17.110;2023-02-14T05:08:07;3.70;99.90
15133;DHT22;7667;51.232;17.110;2023-02-14T05:10:34;3.70;99.90
15133;DHT22;7667;51.232;17.110;2023-02-14T05:13:01;3.70;99.90
15133;DHT22;7667;51.232;17.110;2023-02-14T05:15:29;3.80;99.90
15133;DHT22;7667;51.232;17.110;2023-02-14T05:17:56;3.70;99.90
15133;DHT22;7667;51.232;17.110;2023-02-14T05:20:28;3.70;99.90
15133;DHT22;7667;51.232;17.110;2023-02-14T05:22:55;3.70;99.90
15133;DHT22;7667;51.232;17.110;2023-02-14T05:25:25;3.80;99.90
15133;DHT22;7667;51.232;17.110;2023-02-14T05:27:53;3.80;99.90
15133;DHT22;7667;51.232;17.110;2023-02-14T05:30:20;3.80;99.90
15133;DHT22;7667;51.232;17.110;2023-02-14T05:32:53;3.60;99.90
15133;DHT22;7667;51.232;17.110;2023-02-14T05:35:20;3.60;99.90
15133;DHT22;7667;51.232;17.110;2023-02-14T05:37:48;3.70;99.90
15133;DHT22;7667;51.232;17.110;2023-02-14T05:40:16;3.60;99.90
15133;DHT22;7667;51.232;17.110;2023-02-14T05:42:43;3.60;99.90
15133;DHT22;7667;51.232;17.110;2023-02-14T05:45:11;3.70;99.90
15133;DHT22;7667;51.232;17.110;2023-02-14T05:47:38;3.60;99.90
15133;DHT22;7667;51.232;17.110;2023-02-14T05:50:07;3.60;99.90
15133;DHT22;7667;51.232;17.110;2023-02-14T05:52:35;3.70;99.90
15133;DHT22;7667;51.232;17.110;2023-02-14T05:55:04;3.70;99.90
15133;DHT22;7667;51.232;17.110;2023-02-14T05:57:32;3.70;99.90
15133;DHT22;7667;51.232;17.110;2023-02-14T05:59:59;3.80;99.90
15133;DHT22;7667;51.232;17.110;2023-02-14T06:02:27;3.70;99.90
15133;DHT22;7667;51.232;17.110;2023-02-14T06:04:54;3.70;99.90
15133;DHT22;7667;51.232;17.110;2023-02-14T06:07:22;3.60;99.90
15133;DHT22;7667;51.232;17.110;2023-02-14T06:09:50;3.60;99.90
15133;DHT22;7667;51.232;17.110;2023-02-14T06:12:17;3.50;99.90
15133;DHT22;7667;51.232;17.110;2023-02-14T06:14:44;3.60;99.90
15133;DHT22;7667;51.232;17.110;2023-02-14T06:17:12;3.60;99.90
15133;DHT22;7667;51.232;17.110;2023-02-14T06:19:39;3.60;99.90
15133;DHT22;7667;51.232;17.110;2023-02-14T06:22:08;3.60;99.90
15133;DHT22;7667;51.232;17.110;2023-02-14T06:24:36;3.50;99.90
15133;DHT22;7667;51.232;17.110;2023-02-14T06:27:03;3.60;99.90
15133;DHT22;7667;51.232;17.110;2023-02-14T06:29:31;3.60;99.90
15133;DHT22;7667;51.232;17.110;2023-02-14T06:31:58;3.60;99.90
15133;DHT22;7667;51.232;17.110;2023-02-14T06:34:33;3.50;99.90
15133;DHT22;7667;51.232;17.110;2023-02-14T06:37:00;3.50;99.90
15133;DHT22;7667;51.232;17.110;2023-02-14T06:39:28;3.50;99.90
15133;DHT22;7667;51.232;17.110;2023-02-14T06:41:55;3.50;99.90
15133;DHT22;7667;51.232;17.110;2023-02-14T06:44:22;3.50;99.90
15133;DHT22;7667;51.232;17.110;2023-02-14T06:46:50;3.50;99.90
15133;DHT22;7667;51.232;17.110;2023-02-14T06:49:17;3.50;99.90
15133;DHT22;7667;51.232;17.110;2023-02-14T06:51:45;3.50;99.90
15133;DHT22;7667;51.232;17.110;2023-02-14T06:54:12;3.50;99.90
15133;DHT22;7667;51.232;17.110;2023-02-14T06:56:40;3.50;99.90
15133;DHT22;7667;51.232;17.110;2023-02-14T06:59:07;3.50;99.90
15133;DHT22;7667;51.232;17.110;2023-02-14T07:01:35;3.50;99.90
15133;DHT22;7667;51.232;17.110;2023-02-14T07:04:02;3.50;99.90
15133;DHT22;7667;51.232;17.110;2023-02-14T07:06:30;3.60;99.90
15133;DHT22;7667;51.232;17.110;2023-02-14T07:08:58;3.70;99.90
15133;DHT22;7667;51.232;17.110;2023-02-14T07:11:25;3.70;99.90
15133;DHT22;7667;51.232;17.110;2023-02-14T07:13:54;3.70;99.90
15133;DHT22;7667;51.232;17.110;2023-02-14T07:16:22;3.70;99.90
15133;DHT22;7667;51.232;17.110;2023-02-14T07:18:49;3.70;99.90
15133;DHT22;7667;51.232;17.110;2023-02-14T07:21:17;3.70;99.90
15133;DHT22;7667;51.232;17.110;2023-02-14T07:23:44;3.70;99.90
15133;DHT22;7667;51.232;17.110;2023-02-14T07:26:13;3.70;99.90
15133;DHT22;7667;51.232;17.110;2023-02-14T07:28:44;3.80;99.90
15133;DHT22;7667;51.232;17.110;2023-02-14T07:31:15;3.80;99.90
15133;DHT22;7667;51.232;17.110;2023-02-14T07:33:43;3.80;99.90
15133;DHT22;7667;51.232;17.110;2023-02-14T07:36:11;3.80;99.90
15133;DHT22;7667;51.232;17.110;2023-02-14T07:38:38;3.70;99.90
15133;DHT22;7667;51.232;17.110;2023-02-14T07:41:06;3.70;99.90
15133;DHT22;7667;51.232;17.110;2023-02-14T07:43:33;3.80;99.90
15133;DHT22;7667;51.232;17.110;2023-02-14T07:46:01;3.80;99.90
15133;DHT22;7667;51.232;17.110;2023-02-14T07:48:29;3.80;99.90
15133;DHT22;7667;51.232;17.110;2023-02-14T07:51:00;3.80;99.90
15133;DHT22;7667;51.232;17.110;2023-02-14T07:53:28;3.80;99.90
15133;DHT22;7667;51.232;17.110;2023-02-14T07:55:56;3.90;99.90
15133;DHT22;7667;51.232;17.110;2023-02-14T07:58:24;4.00;99.90
15133;DHT22;7667;51.232;17.110;2023-02-14T08:00:51;4.10;99.90
15133;DHT22;7667;51.232;17.110;2023-02-14T08:03:18;4.10;99.90
15133;DHT22;7667;51.232;17.110;2023-02-14T08:05:48;4.10;99.90
15133;DHT22;7667;51.232;17.110;2023-02-14T08:08:33;4.20;99.90
15133;DHT22;7667;51.232;17.110;2023-02-14T08:11:01;4.10;99.90
15133;DHT22;7667;51.232;17.110;2023-02-14T08:13:29;4.20;99.90
15133;DHT22;7667;51.232;17.110;2023-02-14T08:15:56;4.30;99.90
15133;DHT22;7667;51.232;17.110;2023-02-14T08:18:38;4.20;99.90
15133;DHT22;7667;51.232;17.110;2023-02-14T08:21:09;4.30;99.90
15133;DHT22;7667;51.232;17.110;2023-02-14T08:23:37;4.40;99.90
15133;DHT22;7667;51.232;17.110;2023-02-14T08:26:05;4.40;99.90
15133;DHT22;7667;51.232;17.110;2023-02-14T08:28:32;4.50;99.90
15133;DHT22;7667;51.232;17.110;2023-02-14T08:31:01;4.40;99.90
15133;DHT22;7667;51.232;17.110;2023-02-14T08:33:30;4.40;99.90
15133;DHT22;7667;51.232;17.110;2023-02-14T08:35:57;4.50;99.90
15133;DHT22;7667;51.232;17.110;2023-02-14T08:38:25;4.60;99.90
15133;DHT22;7667;51.232;17.110;2023-02-14T08:40:52;4.70;99.90
15133;DHT22;7667;51.232;17.110;2023-02-14T08:43:20;4.80;99.90
15133;DHT22;7667;51.232;17.110;2023-02-14T08:45:51;4.80;99.90
15133;DHT22;7667;51.232;17.110;2023-02-14T08:48:19;4.80;99.90
15133;DHT22;7667;51.232;17.110;2023-02-14T08:50:49;4.90;99.90
15133;DHT22;7667;51.232;17.110;2023-02-14T08:53:17;5.00;99.90
15133;DHT22;7667;51.232;17.110;2023-02-14T08:55:45;5.00;99.90
15133;DHT22;7667;51.232;17.110;2023-02-14T08:58:12;5.00;99.90
15133;DHT22;7667;51.232;17.110;2023-02-14T09:00:40;5.30;99.90
15133;DHT22;7667;51.232;17.110;2023-02-14T09:03:08;5.40;99.90
15133;DHT22;7667;51.232;17.110;2023-02-14T09:05:36;5.40;99.90
15133;DHT22;7667;51.232;17.110;2023-02-14T09:08:04;5.30;99.90
15133;DHT22;7667;51.232;17.110;2023-02-14T09:10:31;5.40;99.90
15133;DHT22;7667;51.232;17.110;2023-02-14T09:12:59;5.40;99.90
15133;DHT22;7667;51.232;17.110;2023-02-14T09:15:27;5.40;99.90
15133;DHT22;7667;51.232;17.110;2023-02-14T09:17:54;5.30;99.90
15133;DHT22;7667;51.232;17.110;2023-02-14T09:20:22;5.40;99.90
15133;DHT22;7667;51.232;17.110;2023-02-14T09:22:53;5.50;99.90
15133;DHT22;7667;51.232;17.110;2023-02-14T09:25:21;5.40;99.90
15133;DHT22;7667;51.232;17.110;2023-02-14T09:27:49;5.40;99.90
15133;DHT22;7667;51.232;17.110;2023-02-14T09:30:16;5.50;99.90
15133;DHT22;7667;51.232;17.110;2023-02-14T09:32:44;5.60;99.90
15133;DHT22;7667;51.232;17.110;2023-02-14T09:35:12;5.70;99.90
15133;DHT22;7667;51.232;17.110;2023-02-14T09:37:58;5.80;99.90
15133;DHT22;7667;51.232;17.110;2023-02-14T09:40:25;5.60;99.90
15133;DHT22;7667;51.232;17.110;2023-02-14T09:43:09;5.60;99.90
15133;DHT22;7667;51.232;17.110;2023-02-14T09:45:41;5.70;99.90
15133;DHT22;7667;51.232;17.110;2023-02-14T09:51:02;5.90;99.90
15133;DHT22;7667;51.232;17.110;2023-02-14T09:53:34;6.00;99.90
15133;DHT22;7667;51.232;17.110;2023-02-14T09:59:21;6.30;99.90
15133;DHT22;7667;51.232;17.110;2023-02-14T10:04:47;6.50;99.90
15133;DHT22;7667;51.232;17.110;2023-02-14T10:10:46;6.30;99.90
15133;DHT22;7667;51.232;17.110;2023-02-14T10:21:57;6.00;99.90
15133;DHT22;7667;51.232;17.110;2023-02-14T10:24:33;6.10;99.90
15133;DHT22;7667;51.232;17.110;2023-02-14T10:27:40;5.90;99.90
15133;DHT22;7667;51.232;17.110;2023-02-14T10:30:15;6.10;99.90
15133;DHT22;7667;51.232;17.110;2023-02-14T10:35:50;6.20;99.90
15133;DHT22;7667;51.232;17.110;2023-02-14T10:38:39;6.30;99.90
15133;DHT22;7667;51.232;17.110;2023-02-14T10:41:22;6.20;99.90
15133;DHT22;7667;51.232;17.110;2023-02-14T10:50:31;6.00;99.90
15133;DHT22;7667;51.232;17.110;2023-02-14T10:53:12;5.90;99.90
15133;DHT22;7667;51.232;17.110;2023-02-14T10:56:01;6.00;99.90
15133;DHT22;7667;51.232;17.110;2023-02-14T10:58:35;6.10;99.90
15133;DHT22;7667;51.232;17.110;2023-02-14T11:01:13;6.10;99.90
15133;DHT22;7667;51.232;17.110;2023-02-14T11:03:52;6.30;99.90
15133;DHT22;7667;51.232;17.110;2023-02-14T11:06:22;6.20;99.90
15133;DHT22;7667;51.232;17.110;2023-02-14T11:08:50;6.30;99.90
15133;DHT22;7667;51.232;17.110;2023-02-14T11:16:59;6.20;99.90
15133;DHT22;7667;51.232;17.110;2023-02-14T11:20:01;6.10;99.90
15133;DHT22;7667;51.232;17.110;2023-02-14T11:22:44;5.90;99.90
15133;DHT22;7667;51.232;17.110;2023-02-14T11:25:27;5.80;99.90
15133;DHT22;7667;51.232;17.110;2023-02-14T11:28:06;5.70;99.90
15133;DHT22;7667;51.232;17.110;2023-02-14T11:30:40;6.00;99.90
15133;DHT22;7667;51.232;17.110;2023-02-14T11:33:36;6.30;99.90
15133;DHT22;7667;51.232;17.110;2023-02-14T11:36:12;6.20;99.90
15133;DHT22;7667;51.232;17.110;2023-02-14T11:38:42;6.10;99.90
15133;DHT22;7667;51.232;17.110;2023-02-14T11:41:13;5.90;99.90
15133;DHT22;7667;51.232;17.110;2023-02-14T11:43:43;5.90;99.90
15133;DHT22;7667;51.232;17.110;2023-02-14T11:51:35;5.90;99.90
15133;DHT22;7667;51.232;17.110;2023-02-14T11:54:31;6.00;99.90
15133;DHT22;7667;51.232;17.110;2023-02-14T11:59:52;6.00;99.90
15133;DHT22;7667;51.232;17.110;2023-02-14T12:08:29;6.10;99.90
15133;DHT22;7667;51.232;17.110;2023-02-14T12:11:18;6.40;99.90
15133;DHT22;7667;51.232;17.110;2023-02-14T12:13:52;6.20;99.90
15133;DHT22;7667;51.232;17.110;2023-02-14T12:16:45;6.40;99.90
15133;DHT22;7667;51.232;17.110;2023-02-14T12:22:40;6.50;99.90
15133;DHT22;7667;51.232;17.110;2023-02-14T12:27:56;6.30;99.90
15133;DHT22;7667;51.232;17.110;2023-02-14T12:30:32;6.40;99.90
15133;DHT22;7667;51.232;17.110;2023-02-14T12:33:00;6.10;99.90
15133;DHT22;7667;51.232;17.110;2023-02-14T12:42:10;6.10;99.90
15133;DHT22;7667;51.232;17.110;2023-02-14T12:44:57;6.10;99.90
15133;DHT22;7667;51.232;17.110;2023-02-14T12:50:57;6.40;99.90
15133;DHT22;7667;51.232;17.110;2023-02-14T13:09:08;5.70;99.90
15133;DHT22;7667;51.232;17.110;2023-02-14T13:20:55;5.90;99.90
15133;DHT22;7667;51.232;17.110;2023-02-14T13:23:29;5.70;99.90
15133;DHT22;7667;51.232;17.110;2023-02-14T13:26:17;5.60;99.90
15133;DHT22;7667;51.232;17.110;2023-02-14T13:29:09;5.70;99.90
15133;DHT22;7667;51.232;17.110;2023-02-14T13:31:40;5.60;99.90
15133;DHT22;7667;51.232;17.110;2023-02-14T13:34:30;5.50;99.90
15133;DHT22;7667;51.232;17.110;2023-02-14T13:37:02;5.40;99.90
15133;DHT22;7667;51.232;17.110;2023-02-14T13:40:21;5.40;99.90
15133;DHT22;7667;51.232;17.110;2023-02-14T13:48:15;5.30;99.90
15133;DHT22;7667;51.232;17.110;2023-02-14T13:50:54;5.30;99.90
15133;DHT22;7667;51.232;17.110;2023-02-14T13:53:46;5.20;99.90
15133;DHT22;7667;51.232;17.110;2023-02-14T13:58:57;5.20;99.90
15133;DHT22;7667;51.232;17.110;2023-02-14T14:01:44;5.30;99.90
15133;DHT22;7667;51.232;17.110;2023-02-14T14:18:29;5.40;99.90
15133;DHT22;7667;51.232;17.110;2023-02-14T14:20:44;5.40;99.90
15133;DHT22;7667;51.232;17.110;2023-02-14T14:23:34;5.50;99.90
15133;DHT22;7667;51.232;17.110;2023-02-14T14:26:45;5.40;99.90
15133;DHT22;7667;51.232;17.110;2023-02-14T14:32:11;5.30;99.90
15133;DHT22;7667;51.232;17.110;2023-02-14T14:34:53;5.20;99.90
15133;DHT22;7667;51.232;17.110;2023-02-14T14:37:27;5.20;99.90
15133;DHT22;7667;51.232;17.110;2023-02-14T14:40:05;5.20;99.90
15133;DHT22;7667;51.232;17.110;2023-02-14T14:42:38;5.30;99.90
15133;DHT22;7667;51.232;17.110;2023-02-14T14:45:18;5.20;99.90
15133;DHT22;7667;51.232;17.110;2023-02-14T14:47:58;5.20;99.90
15133;DHT22;7667;51.232;17.110;2023-02-14T14:50:32;5.10;99.90
15133;DHT22;7667;51.232;17.110;2023-02-14T14:53:05;5.10;99.90
15133;DHT22;7667;51.232;17.110;2023-02-14T14:55:36;5.00;99.90
15133;DHT22;7667;51.232;17.110;2023-02-14T14:58:10;5.00;99.90
15133;DHT22;7667;51.232;17.110;2023-02-14T15:00:58;5.00;99.90
15133;DHT22;7667;51.232;17.110;2023-02-14T15:03:27;5.00;99.90
15133;DHT22;7667;51.232;17.110;2023-02-14T15:06:21;5.00;99.90
15133;DHT22;7667;51.232;17.110;2023-02-14T15:08:49;5.10;99.90
15133;DHT22;7667;51.232;17.110;2023-02-14T15:11:21;5.10;99.90
15133;DHT22;7667;51.232;17.110;2023-02-14T15:14:15;5.00;99.90
15133;DHT22;7667;51.232;17.110;2023-02-14T15:16:48;4.90;99.90
15133;DHT22;7667;51.232;17.110;2023-02-14T15:19:21;4.80;99.90
15133;DHT22;7667;51.232;17.110;2023-02-14T15:21:57;4.70;99.90
15133;DHT22;7667;51.232;17.110;2023-02-14T15:24:25;4.70;99.90
15133;DHT22;7667;51.232;17.110;2023-02-14T15:26:53;4.70;99.90
15133;DHT22;7667;51.232;17.110;2023-02-14T15:29:28;4.60;99.90
15133;DHT22;7667;51.232;17.110;2023-02-14T15:31:58;4.70;99.90
15133;DHT22;7667;51.232;17.110;2023-02-14T15:34:32;4.70;99.90
15133;DHT22;7667;51.232;17.110;2023-02-14T15:37:03;4.70;99.90
15133;DHT22;7667;51.232;17.110;2023-02-14T15:39:40;4.60;99.90
15133;DHT22;7667;51.232;17.110;2023-02-14T15:42:22;4.60;99.90
15133;DHT22;7667;51.232;17.110;2023-02-14T15:47:55;4.50;99.90
15133;DHT22;7667;51.232;17.110;2023-02-14T15:50:26;4.50;99.90
15133;DHT22;7667;51.232;17.110;2023-02-14T15:53:06;4.50;99.90
15133;DHT22;7667;51.232;17.110;2023-02-14T15:56:00;4.40;99.90
15133;DHT22;7667;51.232;17.110;2023-02-14T15:58:30;4.30;99.90
15133;DHT22;7667;51.232;17.110;2023-02-14T16:00:58;4.30;99.90
15133;DHT22;7667;51.232;17.110;2023-02-14T16:03:31;4.30;99.90
15133;DHT22;7667;51.232;17.110;2023-02-14T16:06:03;4.20;99.90
15133;DHT22;7667;51.232;17.110;2023-02-14T16:08:34;4.20;99.90
15133;DHT22;7667;51.232;17.110;2023-02-14T16:11:26;4.10;99.90
15133;DHT22;7667;51.232;17.110;2023-02-14T16:13:56;4.00;99.90
15133;DHT22;7667;51.232;17.110;2023-02-14T16:16:24;4.00;99.90
15133;DHT22;7667;51.232;17.110;2023-02-14T16:18:53;4.00;99.90
15133;DHT22;7667;51.232;17.110;2023-02-14T16:21:28;4.00;99.90
15133;DHT22;7667;51.232;17.110;2023-02-14T16:26:34;4.00;99.90
15133;DHT22;7667;51.232;17.110;2023-02-14T16:29:05;4.00;99.90
15133;DHT22;7667;51.232;17.110;2023-02-14T16:31:41;4.00;99.90
15133;DHT22;7667;51.232;17.110;2023-02-14T16:34:30;4.00;99.90
15133;DHT22;7667;51.232;17.110;2023-02-14T16:37:00;4.00;99.90
15133;DHT22;7667;51.232;17.110;2023-02-14T16:39:36;4.00;99.90
15133;DHT22;7667;51.232;17.110;2023-02-14T16:42:05;3.90;99.90
15133;DHT22;7667;51.232;17.110;2023-02-14T16:44:44;3.90;99.90
15133;DHT22;7667;51.232;17.110;2023-02-14T16:47:14;3.90;99.90
15133;DHT22;7667;51.232;17.110;2023-02-14T16:49:44;3.90;99.90
15133;DHT22;7667;51.232;17.110;2023-02-14T16:52:17;3.90;99.90
15133;DHT22;7667;51.232;17.110;2023-02-14T16:54:49;3.80;99.90
15133;DHT22;7667;51.232;17.110;2023-02-14T16:57:22;3.80;99.90
15133;DHT22;7667;51.232;17.110;2023-02-14T16:59:54;3.80;99.90
15133;DHT22;7667;51.232;17.110;2023-02-14T17:02:22;3.70;99.90
15133;DHT22;7667;51.232;17.110;2023-02-14T17:04:54;3.70;99.90
15133;DHT22;7667;51.232;17.110;2023-02-14T17:07:22;3.60;99.90
15133;DHT22;7667;51.232;17.110;2023-02-14T17:09:54;3.60;99.90
15133;DHT22;7667;51.232;17.110;2023-02-14T17:12:28;3.50;99.90
15133;DHT22;7667;51.232;17.110;2023-02-14T17:15:00;3.50;99.90
15133;DHT22;7667;51.232;17.110;2023-02-14T17:17:33;3.50;99.90
15133;DHT22;7667;51.232;17.110;2023-02-14T17:20:03;3.40;99.90
15133;DHT22;7667;51.232;17.110;2023-02-14T17:22:32;3.40;99.90
15133;DHT22;7667;51.232;17.110;2023-02-14T17:25:00;3.40;99.90
15133;DHT22;7667;51.232;17.110;2023-02-14T17:27:28;3.40;99.90
15133;DHT22;7667;51.232;17.110;2023-02-14T17:29:55;3.40;99.90
15133;DHT22;7667;51.232;17.110;2023-02-14T17:32:23;3.40;99.90
15133;DHT22;7667;51.232;17.110;2023-02-14T17:34:50;3.40;99.90
15133;DHT22;7667;51.232;17.110;2023-02-14T17:37:18;3.40;99.90
15133;DHT22;7667;51.232;17.110;2023-02-14T17:39:45;3.40;99.90
15133;DHT22;7667;51.232;17.110;2023-02-14T17:42:13;3.40;99.90
15133;DHT22;7667;51.232;17.110;2023-02-14T17:44:40;3.40;99.90
15133;DHT22;7667;51.232;17.110;2023-02-14T17:47:08;3.40;99.90
15133;DHT22;7667;51.232;17.110;2023-02-14T17:49:35;3.40;99.90
15133;DHT22;7667;51.232;17.110;2023-02-14T17:52:04;3.30;99.90
15133;DHT22;7667;51.232;17.110;2023-02-14T17:54:35;3.30;99.90
15133;DHT22;7667;51.232;17.110;2023-02-14T17:57:04;3.30;99.90
15133;DHT22;7667;51.232;17.110;2023-02-14T17:59:32;3.30;99.90
15133;DHT22;7667;51.232;17.110;2023-02-14T18:02:00;3.30;99.90
15133;DHT22;7667;51.232;17.110;2023-02-14T18:04:27;3.20;99.90
15133;DHT22;7667;51.232;17.110;2023-02-14T18:07:01;3.10;99.90
15133;DHT22;7667;51.232;17.110;2023-02-14T18:09:29;3.00;99.90
15133;DHT22;7667;51.232;17.110;2023-02-14T18:11:57;3.00;99.90
15133;DHT22;7667;51.232;17.110;2023-02-14T18:14:25;2.90;99.90
15133;DHT22;7667;51.232;17.110;2023-02-14T18:16:52;2.90;99.90
15133;DHT22;7667;51.232;17.110;2023-02-14T18:19:20;3.00;99.90
15133;DHT22;7667;51.232;17.110;2023-02-14T18:21:47;3.00;99.90
15133;DHT22;7667;51.232;17.110;2023-02-14T18:24:15;3.10;99.90
15133;DHT22;7667;51.232;17.110;2023-02-14T18:26:42;3.10;99.90
15133;DHT22;7667;51.232;17.110;2023-02-14T18:29:11;3.10;99.90
15133;DHT22;7667;51.232;17.110;2023-02-14T18:31:41;3.00;99.90
15133;DHT22;7667;51.232;17.110;2023-02-14T18:34:09;3.00;99.90
15133;DHT22;7667;51.232;17.110;2023-02-14T18:36:39;3.00;99.90
15133;DHT22;7667;51.232;17.110;2023-02-14T18:39:08;3.00;99.90
15133;DHT22;7667;51.232;17.110;2023-02-14T18:41:36;2.90;99.90
15133;DHT22;7667;51.232;17.110;2023-02-14T18:44:04;2.90;99.90
15133;DHT22;7667;51.232;17.110;2023-02-14T18:46:33;2.90;99.90
15133;DHT22;7667;51.232;17.110;2023-02-14T18:49:03;2.90;99.90
15133;DHT22;7667;51.232;17.110;2023-02-14T18:51:35;2.80;99.90
15133;DHT22;7667;51.232;17.110;2023-02-14T18:54:05;2.80;99.90